sensor_id;sensor_type;location;lat;lon;timestamp;P1;durP1;ratioP1;P2;durP2;ratioP2
77876;SDS011;67251;50.844;7.978;2023-06-10T00:02:14;13.38;;;7.70;;
77876;SDS011;67251;50.844;7.978;2023-06-10T00:04:41;13.32;;;8.20;;
77876;SDS011;67251;50.844;7.978;2023-06-10T00:07:07;13.27;;;8.32;;
77876;SDS011;67251;50.844;7.978;2023-06-10T00:09:38;14.40;;;8.52;;
77876;SDS011;67251;50.844;7.978;2023-06-10T00:12:04;11.73;;;7.75;;
77876;SDS011;67251;50.844;7.978;2023-06-10T00:14:32;11.02;;;7.53;;
77876;SDS011;67251;50.844;7.978;2023-06-10T00:16:58;12.13;;;8.20;;
77876;SDS011;67251;50.844;7.978;2023-06-10T00:19:24;14.98;;;8.20;;
77876;SDS011;67251;50.844;7.978;2023-06-10T00:21:51;12.27;;;8.13;;
77876;SDS011;67251;50.844;7.978;2023-06-10T00:24:17;10.40;;;7.75;;
77876;SDS011;67251;50.844;7.978;2023-06-10T00:26:43;11.82;;;7.38;;
77876;SDS011;67251;50.844;7.978;2023-06-10T00:29:08;12.10;;;8.02;;
77876;SDS011;67251;50.844;7.978;2023-06-10T00:31:34;11.13;;;7.72;;
77876;SDS011;67251;50.844;7.978;2023-06-10T00:34:00;11.20;;;7.38;;
77876;SDS011;67251;50.844;7.978;2023-06-10T00:36:25;11.77;;;7.57;;
77876;SDS011;67251;50.844;7.978;2023-06-10T00:38:51;10.75;;;7.38;;
77876;SDS011;67251;50.844;7.978;2023-06-10T00:41:17;15.38;;;8.00;;
77876;SDS011;67251;50.844;7.978;2023-06-10T00:43:42;13.20;;;7.95;;
77876;SDS011;67251;50.844;7.978;2023-06-10T00:46:08;12.02;;;7.97;;
77876;SDS011;67251;50.844;7.978;2023-06-10T00:48:34;11.70;;;8.32;;
77876;SDS011;67251;50.844;7.978;2023-06-10T00:50:59;12.85;;;8.45;;
77876;SDS011;67251;50.844;7.978;2023-06-10T00:53:25;11.65;;;8.07;;
77876;SDS011;67251;50.844;7.978;2023-06-10T00:55:51;13.88;;;7.93;;
77876;SDS011;67251;50.844;7.978;2023-06-10T00:58:17;12.35;;;8.30;;
77876;SDS011;67251;50.844;7.978;2023-06-10T01:00:42;12.60;;;7.93;;
77876;SDS011;67251;50.844;7.978;2023-06-10T01:03:10;11.75;;;7.75;;
77876;SDS011;67251;50.844;7.978;2023-06-10T01:05:37;10.93;;;8.13;;
77876;SDS011;67251;50.844;7.978;2023-06-10T01:10:54;11.68;;;8.40;;
77876;SDS011;67251;50.844;7.978;2023-06-10T01:13:25;11.73;;;7.35;;
77876;SDS011;67251;50.844;7.978;2023-06-10T01:15:54;13.45;;;7.82;;
77876;SDS011;67251;50.844;7.978;2023-06-10T01:18:21;13.40;;;8.25;;
77876;SDS011;67251;50.844;7.978;2023-06-10T01:20:46;12.32;;;7.63;;
77876;SDS011;67251;50.844;7.978;2023-06-10T01:23:14;12.50;;;7.65;;
77876;SDS011;67251;50.844;7.978;2023-06-10T01:25:41;11.20;;;7.25;;
77876;SDS011;67251;50.844;7.978;2023-06-10T01:28:14;14.27;;;8.35;;
77876;SDS011;67251;50.844;7.978;2023-06-10T01:33:45;12.48;;;7.68;;
77876;SDS011;67251;50.844;7.978;2023-06-10T01:36:12;13.82;;;8.48;;
77876;SDS011;67251;50.844;7.978;2023-06-10T01:38:44;12.50;;;7.93;;
77876;SDS011;67251;50.844;7.978;2023-06-10T01:41:12;12.63;;;8.00;;
77876;SDS011;67251;50.844;7.978;2023-06-10T01:43:39;10.75;;;7.43;;
77876;SDS011;67251;50.844;7.978;2023-06-10T01:46:05;13.07;;;7.70;;
77876;SDS011;67251;50.844;7.978;2023-06-10T01:51:06;14.35;;;8.70;;
77876;SDS011;67251;50.844;7.978;2023-06-10T01:53:31;13.38;;;8.45;;
77876;SDS011;67251;50.844;7.978;2023-06-10T01:55:57;15.65;;;8.98;;
77876;SDS011;67251;50.844;7.978;2023-06-10T01:58:22;13.75;;;8.70;;
77876;SDS011;67251;50.844;7.978;2023-06-10T02:00:48;14.18;;;8.43;;
77876;SDS011;67251;50.844;7.978;2023-06-10T02:03:13;12.07;;;8.50;;
77876;SDS011;67251;50.844;7.978;2023-06-10T02:05:38;14.65;;;9.13;;
77876;SDS011;67251;50.844;7.978;2023-06-10T02:08:04;12.25;;;7.95;;
77876;SDS011;67251;50.844;7.978;2023-06-10T02:10:30;13.63;;;8.82;;
77876;SDS011;67251;50.844;7.978;2023-06-10T02:12:55;11.98;;;7.88;;
77876;SDS011;67251;50.844;7.978;2023-06-10T02:15:20;14.48;;;8.95;;
77876;SDS011;67251;50.844;7.978;2023-06-10T02:17:46;13.63;;;8.52;;
77876;SDS011;67251;50.844;7.978;2023-06-10T02:20:11;12.90;;;8.35;;
77876;SDS011;67251;50.844;7.978;2023-06-10T02:22:38;14.30;;;9.10;;
77876;SDS011;67251;50.844;7.978;2023-06-10T02:25:04;13.98;;;8.75;;
77876;SDS011;67251;50.844;7.978;2023-06-10T02:27:30;14.20;;;9.07;;
77876;SDS011;67251;50.844;7.978;2023-06-10T02:29:59;14.45;;;9.38;;
77876;SDS011;67251;50.844;7.978;2023-06-10T02:32:24;12.27;;;7.93;;
77876;SDS011;67251;50.844;7.978;2023-06-10T02:34:50;13.50;;;9.15;;
77876;SDS011;67251;50.844;7.978;2023-06-10T02:37:16;16.58;;;9.07;;
77876;SDS011;67251;50.844;7.978;2023-06-10T02:39:41;15.70;;;8.80;;
77876;SDS011;67251;50.844;7.978;2023-06-10T02:42:07;16.40;;;9.25;;
77876;SDS011;67251;50.844;7.978;2023-06-10T02:44:32;14.13;;;8.80;;
77876;SDS011;67251;50.844;7.978;2023-06-10T02:46:58;13.45;;;8.95;;
77876;SDS011;67251;50.844;7.978;2023-06-10T02:49:24;14.07;;;8.95;;
77876;SDS011;67251;50.844;7.978;2023-06-10T02:51:52;14.88;;;8.50;;
77876;SDS011;67251;50.844;7.978;2023-06-10T02:54:19;14.00;;;8.27;;
77876;SDS011;67251;50.844;7.978;2023-06-10T02:56:47;14.98;;;8.90;;
77876;SDS011;67251;50.844;7.978;2023-06-10T02:59:13;14.20;;;8.98;;
77876;SDS011;67251;50.844;7.978;2023-06-10T03:01:39;14.98;;;9.27;;
77876;SDS011;67251;50.844;7.978;2023-06-10T03:04:04;14.15;;;9.02;;
77876;SDS011;67251;50.844;7.978;2023-06-10T03:06:30;14.05;;;8.77;;
77876;SDS011;67251;50.844;7.978;2023-06-10T03:08:58;13.98;;;8.52;;
77876;SDS011;67251;50.844;7.978;2023-06-10T03:11:23;13.35;;;8.38;;
77876;SDS011;67251;50.844;7.978;2023-06-10T03:13:48;14.35;;;8.23;;
77876;SDS011;67251;50.844;7.978;2023-06-10T03:16:14;14.32;;;8.20;;
77876;SDS011;67251;50.844;7.978;2023-06-10T03:18:39;14.50;;;8.50;;
77876;SDS011;67251;50.844;7.978;2023-06-10T03:21:05;14.50;;;8.90;;
77876;SDS011;67251;50.844;7.978;2023-06-10T03:23:30;14.35;;;8.55;;
77876;SDS011;67251;50.844;7.978;2023-06-10T03:25:55;16.60;;;9.00;;
77876;SDS011;67251;50.844;7.978;2023-06-10T03:28:21;14.40;;;8.60;;
77876;SDS011;67251;50.844;7.978;2023-06-10T03:30:46;12.82;;;8.07;;
77876;SDS011;67251;50.844;7.978;2023-06-10T03:33:12;16.20;;;9.00;;
77876;SDS011;67251;50.844;7.978;2023-06-10T03:35:39;15.30;;;8.90;;
77876;SDS011;67251;50.844;7.978;2023-06-10T03:38:04;14.35;;;9.32;;
77876;SDS011;67251;50.844;7.978;2023-06-10T03:40:31;12.15;;;8.82;;
77876;SDS011;67251;50.844;7.978;2023-06-10T03:42:57;13.15;;;8.48;;
77876;SDS011;67251;50.844;7.978;2023-06-10T03:45:22;13.82;;;8.52;;
77876;SDS011;67251;50.844;7.978;2023-06-10T03:47:49;14.00;;;8.77;;
77876;SDS011;67251;50.844;7.978;2023-06-10T03:50:15;13.43;;;8.40;;
77876;SDS011;67251;50.844;7.978;2023-06-10T03:52:41;17.45;;;9.23;;
77876;SDS011;67251;50.844;7.978;2023-06-10T03:55:06;15.77;;;9.20;;
77876;SDS011;67251;50.844;7.978;2023-06-10T03:57:32;13.88;;;8.48;;
77876;SDS011;67251;50.844;7.978;2023-06-10T03:59:58;14.43;;;8.60;;
77876;SDS011;67251;50.844;7.978;2023-06-10T04:02:23;13.60;;;8.60;;
77876;SDS011;67251;50.844;7.978;2023-06-10T04:04:48;15.18;;;8.60;;
77876;SDS011;67251;50.844;7.978;2023-06-10T04:07:14;14.40;;;8.80;;
77876;SDS011;67251;50.844;7.978;2023-06-10T04:09:39;12.93;;;8.10;;
77876;SDS011;67251;50.844;7.978;2023-06-10T04:12:05;15.02;;;8.55;;
77876;SDS011;67251;50.844;7.978;2023-06-10T04:14:35;14.27;;;8.57;;
77876;SDS011;67251;50.844;7.978;2023-06-10T04:17:02;13.50;;;8.38;;
77876;SDS011;67251;50.844;7.978;2023-06-10T04:19:28;13.40;;;8.27;;
77876;SDS011;67251;50.844;7.978;2023-06-10T04:21:53;13.80;;;8.95;;
77876;SDS011;67251;50.844;7.978;2023-06-10T04:24:19;14.25;;;9.07;;
77876;SDS011;67251;50.844;7.978;2023-06-10T04:26:44;12.02;;;8.13;;
77876;SDS011;67251;50.844;7.978;2023-06-10T04:29:12;11.60;;;7.53;;
77876;SDS011;67251;50.844;7.978;2023-06-10T04:31:38;12.95;;;7.68;;
77876;SDS011;67251;50.844;7.978;2023-06-10T04:34:03;10.80;;;7.20;;
77876;SDS011;67251;50.844;7.978;2023-06-10T04:36:28;11.63;;;7.70;;
77876;SDS011;67251;50.844;7.978;2023-06-10T04:38:55;11.98;;;7.65;;
77876;SDS011;67251;50.844;7.978;2023-06-10T04:41:20;10.77;;;7.18;;
77876;SDS011;67251;50.844;7.978;2023-06-10T04:43:47;12.82;;;7.78;;
77876;SDS011;67251;50.844;7.978;2023-06-10T04:46:12;10.75;;;6.70;;
77876;SDS011;67251;50.844;7.978;2023-06-10T04:48:38;11.10;;;7.20;;
77876;SDS011;67251;50.844;7.978;2023-06-10T04:51:04;10.13;;;6.40;;
77876;SDS011;67251;50.844;7.978;2023-06-10T04:53:30;11.65;;;7.97;;
77876;SDS011;67251;50.844;7.978;2023-06-10T04:55:56;12.75;;;7.80;;
77876;SDS011;67251;50.844;7.978;2023-06-10T04:58:22;10.48;;;6.97;;
77876;SDS011;67251;50.844;7.978;2023-06-10T05:00:48;11.60;;;7.75;;
77876;SDS011;67251;50.844;7.978;2023-06-10T05:03:13;10.77;;;7.20;;
77876;SDS011;67251;50.844;7.978;2023-06-10T05:05:39;11.82;;;7.70;;
77876;SDS011;67251;50.844;7.978;2023-06-10T05:08:05;10.40;;;6.93;;
77876;SDS011;67251;50.844;7.978;2023-06-10T05:10:30;14.35;;;7.65;;
77876;SDS011;67251;50.844;7.978;2023-06-10T05:12:57;10.32;;;7.22;;
77876;SDS011;67251;50.844;7.978;2023-06-10T05:15:23;14.35;;;7.70;;
77876;SDS011;67251;50.844;7.978;2023-06-10T05:17:49;11.15;;;7.38;;
77876;SDS011;67251;50.844;7.978;2023-06-10T05:20:15;14.00;;;7.97;;
77876;SDS011;67251;50.844;7.978;2023-06-10T05:22:40;11.40;;;7.75;;
77876;SDS011;67251;50.844;7.978;2023-06-10T05:25:06;12.15;;;7.65;;
77876;SDS011;67251;50.844;7.978;2023-06-10T05:27:32;11.80;;;7.20;;
77876;SDS011;67251;50.844;7.978;2023-06-10T05:29:57;12.00;;;7.40;;
77876;SDS011;67251;50.844;7.978;2023-06-10T05:32:23;11.90;;;7.88;;
77876;SDS011;67251;50.844;7.978;2023-06-10T05:34:48;11.10;;;7.40;;
77876;SDS011;67251;50.844;7.978;2023-06-10T05:37:14;12.43;;;6.88;;
77876;SDS011;67251;50.844;7.978;2023-06-10T05:39:39;11.77;;;7.38;;
77876;SDS011;67251;50.844;7.978;2023-06-10T05:42:06;13.23;;;7.70;;
77876;SDS011;67251;50.844;7.978;2023-06-10T05:44:32;11.85;;;7.22;;
77876;SDS011;67251;50.844;7.978;2023-06-10T05:46:58;11.88;;;7.32;;
77876;SDS011;67251;50.844;7.978;2023-06-10T05:49:23;10.80;;;7.22;;
77876;SDS011;67251;50.844;7.978;2023-06-10T05:51:49;10.98;;;7.40;;
77876;SDS011;67251;50.844;7.978;2023-06-10T05:54:14;11.80;;;6.72;;
77876;SDS011;67251;50.844;7.978;2023-06-10T05:56:40;10.93;;;6.43;;
77876;SDS011;67251;50.844;7.978;2023-06-10T05:59:05;9.98;;;6.28;;
77876;SDS011;67251;50.844;7.978;2023-06-10T06:01:31;11.63;;;6.55;;
77876;SDS011;67251;50.844;7.978;2023-06-10T06:03:56;9.65;;;6.30;;
77876;SDS011;67251;50.844;7.978;2023-06-10T06:06:21;9.38;;;5.70;;
77876;SDS011;67251;50.844;7.978;2023-06-10T06:08:47;9.75;;;6.22;;
77876;SDS011;67251;50.844;7.978;2023-06-10T06:11:12;8.18;;;5.55;;
77876;SDS011;67251;50.844;7.978;2023-06-10T06:13:38;8.57;;;5.93;;
77876;SDS011;67251;50.844;7.978;2023-06-10T06:16:04;10.25;;;6.28;;
77876;SDS011;67251;50.844;7.978;2023-06-10T06:18:29;8.80;;;6.13;;
77876;SDS011;67251;50.844;7.978;2023-06-10T06:20:54;9.02;;;6.30;;
77876;SDS011;67251;50.844;7.978;2023-06-10T06:23:20;10.93;;;6.50;;
77876;SDS011;67251;50.844;7.978;2023-06-10T06:25:45;9.10;;;6.05;;
77876;SDS011;67251;50.844;7.978;2023-06-10T06:28:10;11.73;;;6.30;;
77876;SDS011;67251;50.844;7.978;2023-06-10T06:30:36;10.75;;;6.95;;
77876;SDS011;67251;50.844;7.978;2023-06-10T06:33:01;9.82;;;6.55;;
77876;SDS011;67251;50.844;7.978;2023-06-10T06:35:27;8.43;;;5.22;;
77876;SDS011;67251;50.844;7.978;2023-06-10T06:37:52;8.50;;;5.38;;
77876;SDS011;67251;50.844;7.978;2023-06-10T06:40:18;7.78;;;5.60;;
77876;SDS011;67251;50.844;7.978;2023-06-10T06:42:44;8.30;;;5.65;;
77876;SDS011;67251;50.844;7.978;2023-06-10T06:45:09;7.68;;;5.20;;
77876;SDS011;67251;50.844;7.978;2023-06-10T06:47:35;8.32;;;5.40;;
77876;SDS011;67251;50.844;7.978;2023-06-10T06:50:00;8.05;;;5.07;;
77876;SDS011;67251;50.844;7.978;2023-06-10T06:52:26;7.38;;;4.93;;
77876;SDS011;67251;50.844;7.978;2023-06-10T06:54:52;7.22;;;4.82;;
77876;SDS011;67251;50.844;7.978;2023-06-10T06:57:17;8.35;;;5.57;;
77876;SDS011;67251;50.844;7.978;2023-06-10T06:59:42;8.07;;;5.28;;
77876;SDS011;67251;50.844;7.978;2023-06-10T07:02:08;7.82;;;4.88;;
77876;SDS011;67251;50.844;7.978;2023-06-10T07:04:33;8.98;;;4.80;;
77876;SDS011;67251;50.844;7.978;2023-06-10T07:06:59;8.15;;;5.35;;
77876;SDS011;67251;50.844;7.978;2023-06-10T07:09:24;6.85;;;4.53;;
77876;SDS011;67251;50.844;7.978;2023-06-10T07:11:49;8.48;;;4.63;;
77876;SDS011;67251;50.844;7.978;2023-06-10T07:14:15;9.35;;;5.35;;
77876;SDS011;67251;50.844;7.978;2023-06-10T07:16:40;7.90;;;4.90;;
77876;SDS011;67251;50.844;7.978;2023-06-10T07:19:06;7.13;;;4.85;;
77876;SDS011;67251;50.844;7.978;2023-06-10T07:21:31;12.10;;;5.28;;
77876;SDS011;67251;50.844;7.978;2023-06-10T07:23:58;8.10;;;4.53;;
77876;SDS011;67251;50.844;7.978;2023-06-10T07:26:24;8.18;;;5.68;;
77876;SDS011;67251;50.844;7.978;2023-06-10T07:28:51;6.40;;;5.10;;
77876;SDS011;67251;50.844;7.978;2023-06-10T07:31:16;7.47;;;5.00;;
77876;SDS011;67251;50.844;7.978;2023-06-10T07:33:41;10.38;;;5.10;;
77876;SDS011;67251;50.844;7.978;2023-06-10T07:36:08;7.60;;;5.13;;
77876;SDS011;67251;50.844;7.978;2023-06-10T07:38:34;9.50;;;5.68;;
77876;SDS011;67251;50.844;7.978;2023-06-10T07:40:59;8.13;;;4.47;;
77876;SDS011;67251;50.844;7.978;2023-06-10T07:43:25;6.97;;;4.97;;
77876;SDS011;67251;50.844;7.978;2023-06-10T07:45:50;7.80;;;5.10;;
77876;SDS011;67251;50.844;7.978;2023-06-10T07:48:16;8.70;;;5.50;;
77876;SDS011;67251;50.844;7.978;2023-06-10T07:50:41;8.35;;;5.22;;
77876;SDS011;67251;50.844;7.978;2023-06-10T07:53:06;7.88;;;5.18;;
77876;SDS011;67251;50.844;7.978;2023-06-10T07:55:32;6.13;;;4.85;;
77876;SDS011;67251;50.844;7.978;2023-06-10T07:57:57;7.53;;;5.15;;
77876;SDS011;67251;50.844;7.978;2023-06-10T08:00:23;8.13;;;5.53;;
77876;SDS011;67251;50.844;7.978;2023-06-10T08:02:50;7.20;;;5.30;;
77876;SDS011;67251;50.844;7.978;2023-06-10T08:05:15;8.30;;;6.32;;
77876;SDS011;67251;50.844;7.978;2023-06-10T08:07:41;7.93;;;6.03;;
77876;SDS011;67251;50.844;7.978;2023-06-10T08:10:06;10.05;;;5.25;;
77876;SDS011;67251;50.844;7.978;2023-06-10T08:12:32;9.52;;;4.95;;
77876;SDS011;67251;50.844;7.978;2023-06-10T08:14:58;8.75;;;5.30;;
77876;SDS011;67251;50.844;7.978;2023-06-10T08:17:24;8.45;;;5.35;;
77876;SDS011;67251;50.844;7.978;2023-06-10T08:19:49;8.23;;;5.30;;
77876;SDS011;67251;50.844;7.978;2023-06-10T08:22:14;8.48;;;4.93;;
77876;SDS011;67251;50.844;7.978;2023-06-10T08:24:40;7.43;;;5.03;;
77876;SDS011;67251;50.844;7.978;2023-06-10T08:27:05;8.40;;;5.20;;
77876;SDS011;67251;50.844;7.978;2023-06-10T08:29:31;7.47;;;5.20;;
77876;SDS011;67251;50.844;7.978;2023-06-10T08:31:57;6.82;;;4.90;;
77876;SDS011;67251;50.844;7.978;2023-06-10T08:34:22;6.97;;;5.15;;
77876;SDS011;67251;50.844;7.978;2023-06-10T08:36:48;11.23;;;5.82;;
77876;SDS011;67251;50.844;7.978;2023-06-10T08:39:18;8.82;;;5.82;;
77876;SDS011;67251;50.844;7.978;2023-06-10T08:41:45;7.13;;;5.72;;
77876;SDS011;67251;50.844;7.978;2023-06-10T08:44:32;8.25;;;5.63;;
77876;SDS011;67251;50.844;7.978;2023-06-10T08:47:03;7.43;;;4.97;;
77876;SDS011;67251;50.844;7.978;2023-06-10T08:49:34;8.57;;;5.00;;
77876;SDS011;67251;50.844;7.978;2023-06-10T08:52:06;7.22;;;5.82;;
77876;SDS011;67251;50.844;7.978;2023-06-10T08:54:33;8.68;;;5.75;;
77876;SDS011;67251;50.844;7.978;2023-06-10T08:57:03;7.25;;;5.60;;
77876;SDS011;67251;50.844;7.978;2023-06-10T08:59:33;6.85;;;5.30;;
77876;SDS011;67251;50.844;7.978;2023-06-10T09:01:58;9.60;;;5.63;;
77876;SDS011;67251;50.844;7.978;2023-06-10T09:04:25;8.68;;;5.63;;
77876;SDS011;67251;50.844;7.978;2023-06-10T09:06:52;7.40;;;5.35;;
77876;SDS011;67251;50.844;7.978;2023-06-10T09:09:18;8.70;;;5.72;;
77876;SDS011;67251;50.844;7.978;2023-06-10T09:11:45;9.88;;;5.57;;
77876;SDS011;67251;50.844;7.978;2023-06-10T09:14:10;8.23;;;5.70;;
77876;SDS011;67251;50.844;7.978;2023-06-10T09:16:38;7.78;;;5.35;;
77876;SDS011;67251;50.844;7.978;2023-06-10T09:19:04;9.30;;;5.53;;
77876;SDS011;67251;50.844;7.978;2023-06-10T09:21:33;8.02;;;5.30;;
77876;SDS011;67251;50.844;7.978;2023-06-10T09:24:00;7.00;;;5.07;;
77876;SDS011;67251;50.844;7.978;2023-06-10T09:26:29;6.47;;;5.10;;
77876;SDS011;67251;50.844;7.978;2023-06-10T09:29:13;8.15;;;5.45;;
77876;SDS011;67251;50.844;7.978;2023-06-10T09:31:39;7.45;;;5.60;;
77876;SDS011;67251;50.844;7.978;2023-06-10T09:34:09;8.30;;;5.47;;
77876;SDS011;67251;50.844;7.978;2023-06-10T09:36:39;7.60;;;5.18;;
77876;SDS011;67251;50.844;7.978;2023-06-10T09:39:13;7.75;;;5.70;;
77876;SDS011;67251;50.844;7.978;2023-06-10T09:41:42;8.25;;;4.97;;
77876;SDS011;67251;50.844;7.978;2023-06-10T09:44:16;7.40;;;5.30;;
77876;SDS011;67251;50.844;7.978;2023-06-10T09:46:44;8.13;;;5.45;;
77876;SDS011;67251;50.844;7.978;2023-06-10T09:49:11;7.40;;;5.40;;
77876;SDS011;67251;50.844;7.978;2023-06-10T09:51:36;7.35;;;5.20;;
77876;SDS011;67251;50.844;7.978;2023-06-10T09:54:02;8.10;;;5.22;;
77876;SDS011;67251;50.844;7.978;2023-06-10T09:56:33;9.07;;;5.28;;
77876;SDS011;67251;50.844;7.978;2023-06-10T09:59:02;6.60;;;5.03;;
77876;SDS011;67251;50.844;7.978;2023-06-10T10:01:30;6.40;;;4.78;;
77876;SDS011;67251;50.844;7.978;2023-06-10T10:03:56;8.32;;;4.78;;
77876;SDS011;67251;50.844;7.978;2023-06-10T10:06:21;7.10;;;5.10;;
77876;SDS011;67251;50.844;7.978;2023-06-10T10:08:48;8.13;;;5.32;;
77876;SDS011;67251;50.844;7.978;2023-06-10T10:11:18;7.32;;;4.65;;
77876;SDS011;67251;50.844;7.978;2023-06-10T10:13:48;8.02;;;5.47;;
77876;SDS011;67251;50.844;7.978;2023-06-10T10:16:15;7.43;;;4.63;;
77876;SDS011;67251;50.844;7.978;2023-06-10T10:18:43;6.32;;;4.55;;
77876;SDS011;67251;50.844;7.978;2023-06-10T10:21:13;6.78;;;4.65;;
77876;SDS011;67251;50.844;7.978;2023-06-10T10:26:22;6.97;;;4.75;;
77876;SDS011;67251;50.844;7.978;2023-06-10T10:31:36;6.80;;;4.72;;
77876;SDS011;67251;50.844;7.978;2023-06-10T10:34:08;7.45;;;4.38;;
77876;SDS011;67251;50.844;7.978;2023-06-10T10:36:35;7.78;;;4.40;;
77876;SDS011;67251;50.844;7.978;2023-06-10T10:39:02;7.53;;;4.05;;
77876;SDS011;67251;50.844;7.978;2023-06-10T10:41:30;5.70;;;4.03;;
77876;SDS011;67251;50.844;7.978;2023-06-10T10:43:56;6.18;;;4.03;;
77876;SDS011;67251;50.844;7.978;2023-06-10T10:46:22;7.53;;;4.65;;
77876;SDS011;67251;50.844;7.978;2023-06-10T10:48:51;7.10;;;4.20;;
77876;SDS011;67251;50.844;7.978;2023-06-10T10:51:18;6.45;;;4.20;;
77876;SDS011;67251;50.844;7.978;2023-06-10T10:53:43;5.88;;;3.92;;
77876;SDS011;67251;50.844;7.978;2023-06-10T10:56:13;6.13;;;3.75;;
77876;SDS011;67251;50.844;7.978;2023-06-10T10:58:40;6.90;;;4.00;;
77876;SDS011;67251;50.844;7.978;2023-06-10T11:01:10;7.57;;;4.55;;
77876;SDS011;67251;50.844;7.978;2023-06-10T11:03:43;5.93;;;3.92;;
77876;SDS011;67251;50.844;7.978;2023-06-10T11:06:18;6.40;;;3.95;;
77876;SDS011;67251;50.844;7.978;2023-06-10T11:11:23;10.27;;;4.50;;
77876;SDS011;67251;50.844;7.978;2023-06-10T11:13:58;7.70;;;4.13;;
77876;SDS011;67251;50.844;7.978;2023-06-10T11:16:27;6.78;;;4.60;;
77876;SDS011;67251;50.844;7.978;2023-06-10T11:18:53;7.57;;;4.60;;
77876;SDS011;67251;50.844;7.978;2023-06-10T11:21:19;8.27;;;4.78;;
77876;SDS011;67251;50.844;7.978;2023-06-10T11:23:45;6.60;;;4.25;;
77876;SDS011;67251;50.844;7.978;2023-06-10T11:31:20;6.65;;;4.40;;
77876;SDS011;67251;50.844;7.978;2023-06-10T11:33:52;7.05;;;4.65;;
77876;SDS011;67251;50.844;7.978;2023-06-10T11:36:19;5.65;;;4.03;;
77876;SDS011;67251;50.844;7.978;2023-06-10T11:38:44;9.00;;;4.97;;
77876;SDS011;67251;50.844;7.978;2023-06-10T11:41:13;6.75;;;4.13;;
77876;SDS011;67251;50.844;7.978;2023-06-10T11:43:42;6.53;;;4.30;;
77876;SDS011;67251;50.844;7.978;2023-06-10T11:46:09;6.88;;;4.32;;
77876;SDS011;67251;50.844;7.978;2023-06-10T11:48:35;8.88;;;4.55;;
77876;SDS011;67251;50.844;7.978;2023-06-10T11:51:00;7.43;;;4.60;;
77876;SDS011;67251;50.844;7.978;2023-06-10T11:53:25;6.85;;;4.43;;
77876;SDS011;67251;50.844;7.978;2023-06-10T11:55:51;7.55;;;4.57;;
77876;SDS011;67251;50.844;7.978;2023-06-10T11:58:20;7.88;;;4.25;;
77876;SDS011;67251;50.844;7.978;2023-06-10T12:00:48;6.57;;;4.47;;
77876;SDS011;67251;50.844;7.978;2023-06-10T12:03:18;6.78;;;4.00;;
77876;SDS011;67251;50.844;7.978;2023-06-10T12:08:25;7.28;;;4.60;;
77876;SDS011;67251;50.844;7.978;2023-06-10T12:10:51;8.07;;;4.10;;
77876;SDS011;67251;50.844;7.978;2023-06-10T12:13:17;6.03;;;3.80;;
77876;SDS011;67251;50.844;7.978;2023-06-10T12:15:45;6.55;;;4.22;;
77876;SDS011;67251;50.844;7.978;2023-06-10T12:18:21;6.32;;;4.32;;
77876;SDS011;67251;50.844;7.978;2023-06-10T12:20:49;5.78;;;4.13;;
77876;SDS011;67251;50.844;7.978;2023-06-10T12:23:16;7.30;;;4.32;;
77876;SDS011;67251;50.844;7.978;2023-06-10T12:25:50;6.22;;;4.32;;
77876;SDS011;67251;50.844;7.978;2023-06-10T12:28:22;6.68;;;4.20;;
77876;SDS011;67251;50.844;7.978;2023-06-10T12:30:49;5.93;;;4.07;;
77876;SDS011;67251;50.844;7.978;2023-06-10T12:33:18;6.32;;;4.25;;
77876;SDS011;67251;50.844;7.978;2023-06-10T12:35:48;7.45;;;4.43;;
77876;SDS011;67251;50.844;7.978;2023-06-10T12:38:14;7.63;;;3.83;;
77876;SDS011;67251;50.844;7.978;2023-06-10T12:40:46;6.50;;;4.03;;
77876;SDS011;67251;50.844;7.978;2023-06-10T12:43:12;6.90;;;3.92;;
77876;SDS011;67251;50.844;7.978;2023-06-10T12:45:39;6.55;;;3.50;;
77876;SDS011;67251;50.844;7.978;2023-06-10T12:48:08;6.25;;;4.00;;
77876;SDS011;67251;50.844;7.978;2023-06-10T12:50:51;6.82;;;4.05;;
77876;SDS011;67251;50.844;7.978;2023-06-10T12:53:18;6.30;;;4.13;;
77876;SDS011;67251;50.844;7.978;2023-06-10T12:55:44;7.10;;;4.10;;
77876;SDS011;67251;50.844;7.978;2023-06-10T12:58:13;10.00;;;3.95;;
77876;SDS011;67251;50.844;7.978;2023-06-10T13:00:39;5.95;;;3.58;;
77876;SDS011;67251;50.844;7.978;2023-06-10T13:03:06;5.78;;;3.92;;
77876;SDS011;67251;50.844;7.978;2023-06-10T13:05:32;7.00;;;4.20;;
77876;SDS011;67251;50.844;7.978;2023-06-10T13:07:58;7.78;;;3.80;;
77876;SDS011;67251;50.844;7.978;2023-06-10T13:10:24;6.18;;;3.75;;
77876;SDS011;67251;50.844;7.978;2023-06-10T13:12:50;6.07;;;4.22;;
77876;SDS011;67251;50.844;7.978;2023-06-10T13:15:16;6.38;;;4.25;;
77876;SDS011;67251;50.844;7.978;2023-06-10T13:17:43;7.22;;;4.05;;
77876;SDS011;67251;50.844;7.978;2023-06-10T13:20:10;8.55;;;4.28;;
77876;SDS011;67251;50.844;7.978;2023-06-10T13:22:35;7.00;;;4.28;;
77876;SDS011;67251;50.844;7.978;2023-06-10T13:25:05;7.43;;;4.35;;
77876;SDS011;67251;50.844;7.978;2023-06-10T13:27:32;7.30;;;4.50;;
77876;SDS011;67251;50.844;7.978;2023-06-10T13:29:58;5.93;;;3.95;;
77876;SDS011;67251;50.844;7.978;2023-06-10T13:32:24;6.93;;;4.10;;
77876;SDS011;67251;50.844;7.978;2023-06-10T13:34:49;6.20;;;4.30;;
77876;SDS011;67251;50.844;7.978;2023-06-10T13:37:15;7.05;;;4.03;;
77876;SDS011;67251;50.844;7.978;2023-06-10T13:42:08;6.28;;;4.40;;
77876;SDS011;67251;50.844;7.978;2023-06-10T13:44:34;5.70;;;3.58;;
77876;SDS011;67251;50.844;7.978;2023-06-10T13:47:01;7.20;;;4.68;;
77876;SDS011;67251;50.844;7.978;2023-06-10T13:49:30;6.40;;;4.38;;
77876;SDS011;67251;50.844;7.978;2023-06-10T13:51:55;7.28;;;4.80;;
77876;SDS011;67251;50.844;7.978;2023-06-10T13:54:21;6.53;;;4.40;;
77876;SDS011;67251;50.844;7.978;2023-06-10T13:56:46;7.72;;;3.83;;
77876;SDS011;67251;50.844;7.978;2023-06-10T13:59:12;7.68;;;4.57;;
77876;SDS011;67251;50.844;7.978;2023-06-10T14:01:38;7.35;;;4.25;;
77876;SDS011;67251;50.844;7.978;2023-06-10T14:04:03;7.70;;;4.43;;
77876;SDS011;67251;50.844;7.978;2023-06-10T14:06:29;6.15;;;3.92;;
77876;SDS011;67251;50.844;7.978;2023-06-10T14:08:55;6.00;;;4.30;;
77876;SDS011;67251;50.844;7.978;2023-06-10T14:11:21;7.47;;;4.30;;
77876;SDS011;67251;50.844;7.978;2023-06-10T14:13:46;8.10;;;4.38;;
77876;SDS011;67251;50.844;7.978;2023-06-10T14:16:12;6.97;;;4.03;;
77876;SDS011;67251;50.844;7.978;2023-06-10T14:18:38;6.82;;;4.00;;
77876;SDS011;67251;50.844;7.978;2023-06-10T14:21:03;5.57;;;3.47;;
77876;SDS011;67251;50.844;7.978;2023-06-10T14:23:28;6.38;;;3.92;;
77876;SDS011;67251;50.844;7.978;2023-06-10T14:25:54;6.93;;;4.30;;
77876;SDS011;67251;50.844;7.978;2023-06-10T14:28:19;8.70;;;5.10;;
77876;SDS011;67251;50.844;7.978;2023-06-10T14:30:45;7.63;;;4.88;;
77876;SDS011;67251;50.844;7.978;2023-06-10T14:33:10;6.00;;;4.20;;
77876;SDS011;67251;50.844;7.978;2023-06-10T14:35:36;9.20;;;4.82;;
77876;SDS011;67251;50.844;7.978;2023-06-10T14:38:01;8.00;;;4.40;;
77876;SDS011;67251;50.844;7.978;2023-06-10T14:40:27;8.25;;;4.63;;
77876;SDS011;67251;50.844;7.978;2023-06-10T14:42:54;6.40;;;4.40;;
77876;SDS011;67251;50.844;7.978;2023-06-10T14:45:20;6.13;;;4.07;;
77876;SDS011;67251;50.844;7.978;2023-06-10T14:47:45;6.60;;;4.78;;
77876;SDS011;67251;50.844;7.978;2023-06-10T14:50:12;7.43;;;4.65;;
77876;SDS011;67251;50.844;7.978;2023-06-10T14:52:37;6.30;;;4.03;;
77876;SDS011;67251;50.844;7.978;2023-06-10T14:55:03;7.55;;;4.00;;
77876;SDS011;67251;50.844;7.978;2023-06-10T14:57:29;6.05;;;3.85;;
77876;SDS011;67251;50.844;7.978;2023-06-10T14:59:54;5.35;;;3.75;;
77876;SDS011;67251;50.844;7.978;2023-06-10T15:02:21;6.63;;;3.88;;
77876;SDS011;67251;50.844;7.978;2023-06-10T15:04:47;6.55;;;3.67;;
77876;SDS011;67251;50.844;7.978;2023-06-10T15:07:12;6.90;;;4.30;;